Time;durP1;ratioP1;P1;durP2;ratioP2;P2;SDS_P1;SDS_P2;PMS_P1;PMS_P2;Temp;Humidity;BMP_temperature;BMP_pressure;BME280_temperature;BME280_humidity;BME280_pressure;Samples;Min_cycle;Max_cycle;Signal;HPM_P1;HPM_P2
2023/04/19 00:00:21;;;;;;;4.20;3.80;;;9.30;99.90;;;;;;5128992;27;20218;-76
2023/04/19 00:02:50;;;;;;;6.95;3.92;;;9.30;99.90;;;;;;5128429;27;20214;-76
2023/04/19 00:05:19;;;;;;;4.20;3.58;;;9.30;99.90;;;;;;5123522;27;20246;-76
2023/04/19 00:07:46;;;;;;;6.85;4.47;;;9.30;99.90;;;;;;5124292;27;20292;-76
2023/04/19 00:10:15;;;;;;;5.70;3.80;;;9.30;99.90;;;;;;5127338;27;20217;-76
2023/04/19 00:12:43;;;;;;;6.78;4.10;;;9.20;99.90;;;;;;5115603;27;20229;-77
2023/04/19 00:15:11;;;;;;;4.57;3.75;;;9.30;99.90;;;;;;5105173;27;20914;-77
2023/04/19 00:17:38;;;;;;;4.57;3.35;;;9.30;99.90;;;;;;5128071;27;20294;-77
2023/04/19 00:20:07;;;;;;;5.72;3.67;;;9.30;99.90;;;;;;5124615;27;20718;-77
2023/04/19 00:22:34;;;;;;;4.30;3.90;;;9.40;99.90;;;;;;5123733;27;20604;-77
2023/04/19 00:25:01;;;;;;;3.60;3.28;;;9.40;99.90;;;;;;5127090;27;20598;-76
2023/04/19 00:27:29;;;;;;;7.55;3.92;;;9.40;99.90;;;;;;5123296;27;20230;-77
2023/04/19 00:29:58;;;;;;;5.45;3.55;;;9.40;99.90;;;;;;5115232;27;20246;-76
2023/04/19 00:32:25;;;;;;;4.20;3.22;;;9.40;99.90;;;;;;5126772;27;20233;-77
2023/04/19 00:34:52;;;;;;;4.90;3.40;;;9.50;99.90;;;;;;5124984;27;20218;-77
2023/04/19 00:37:24;;;;;;;5.55;3.38;;;9.50;99.90;;;;;;5124271;27;20225;-77
2023/04/19 00:39:51;;;;;;;3.17;2.90;;;9.50;99.90;;;;;;5123155;27;20620;-76
2023/04/19 00:42:18;;;;;;;3.92;3.08;;;9.40;99.90;;;;;;5125349;27;20287;-76
2023/04/19 00:44:48;;;;;;;7.88;3.40;;;9.50;99.90;;;;;;5124747;27;20401;-76
2023/04/19 00:47:16;;;;;;;3.22;2.92;;;9.50;99.90;;;;;;5125736;27;20218;-76
2023/04/19 00:49:43;;;;;;;6.80;3.33;;;9.50;99.90;;;;;;5123104;27;20214;-76
2023/04/19 00:52:11;;;;;;;7.60;3.78;;;9.50;99.90;;;;;;5124588;27;20242;-76
2023/04/19 00:54:43;;;;;;;2.90;2.58;;;9.50;99.90;;;;;;5122439;27;20256;-77
2023/04/19 00:57:10;;;;;;;3.60;3.30;;;9.40;99.90;;;;;;5113362;27;20222;-77
2023/04/19 00:59:37;;;;;;;4.13;3.65;;;9.40;99.90;;;;;;5123947;27;20214;-77
2023/04/19 01:02:03;;;;;;;5.03;2.90;;;9.40;99.90;;;;;;5122601;27;20249;-76
2023/04/19 01:04:32;;;;;;;3.35;2.90;;;9.40;99.90;;;;;;5123818;27;20702;-76
2023/04/19 01:06:59;;;;;;;5.57;3.00;;;9.40;99.90;;;;;;5129218;27;20218;-76
2023/04/19 01:09:26;;;;;;;3.65;3.10;;;9.30;99.90;;;;;;5115950;27;20272;-76
2023/04/19 01:11:54;;;;;;;5.70;3.40;;;9.30;99.90;;;;;;5125281;27;20234;-76
2023/04/19 01:14:23;;;;;;;3.75;3.28;;;9.30;99.90;;;;;;5113710;27;20302;-76
2023/04/19 01:16:51;;;;;;;5.22;4.47;;;9.30;99.70;;;;;;5123521;27;20648;-76
2023/04/19 01:19:21;;;;;;;3.55;3.20;;;9.30;99.80;;;;;;5114308;27;20253;-76
2023/04/19 01:21:51;;;;;;;4.95;3.40;;;9.20;99.90;;;;;;5123192;27;20218;-76
2023/04/19 01:24:19;;;;;;;6.13;3.95;;;9.20;99.80;;;;;;5125598;27;20249;-75
2023/04/19 01:26:50;;;;;;;3.67;3.25;;;9.20;99.90;;;;;;5124878;27;20297;-76
2023/04/19 01:29:20;;;;;;;4.82;3.35;;;9.20;99.90;;;;;;5112840;27;20227;-77
2023/04/19 01:31:52;;;;;;;6.72;4.18;;;9.10;99.60;;;;;;5122646;27;20229;-77
2023/04/19 01:34:19;;;;;;;3.80;3.35;;;9.10;99.80;;;;;;5124414;27;20218;-76
2023/04/19 01:36:46;;;;;;;7.57;4.18;;;9.10;99.80;;;;;;5124419;27;20226;-76
2023/04/19 01:39:13;;;;;;;4.47;3.60;;;9.10;99.80;;;;;;5124181;27;20217;-76
2023/04/19 01:41:42;;;;;;;6.88;3.25;;;9.00;99.90;;;;;;5123484;27;20250;-76
2023/04/19 01:44:14;;;;;;;7.90;3.50;;;9.00;99.90;;;;;;5122255;27;20611;-77
2023/04/19 01:46:42;;;;;;;5.43;3.75;;;9.00;99.80;;;;;;5123958;27;20243;-76
2023/04/19 01:49:09;;;;;;;7.38;4.22;;;8.90;99.90;;;;;;5123968;27;20240;-76
2023/04/19 01:51:38;;;;;;;3.30;3.00;;;8.90;99.90;;;;;;5123208;27;20242;-77
2023/04/19 01:54:06;;;;;;;3.95;2.95;;;8.80;99.90;;;;;;5123257;27;20225;-76
2023/04/19 01:56:33;;;;;;;5.95;3.30;;;8.80;99.90;;;;;;5124501;27;20218;-76
2023/04/19 01:59:05;;;;;;;4.55;3.60;;;8.80;99.90;;;;;;5127924;27;20293;-76
2023/04/19 02:01:34;;;;;;;4.90;3.70;;;8.70;99.90;;;;;;5126861;27;20217;-76
2023/04/19 02:04:02;;;;;;;3.17;2.88;;;8.70;99.90;;;;;;5135063;27;20296;-76
2023/04/19 02:06:48;;;;;;;4.18;2.92;;;8.60;99.90;;;;;;5121210;27;21788;-77
2023/04/19 02:09:24;;;;;;;5.80;3.45;;;8.60;99.90;;;;;;5108571;27;20291;-76
2023/04/19 02:11:53;;;;;;;3.50;3.20;;;8.60;99.90;;;;;;5102759;28;20233;-77
2023/04/19 02:14:23;;;;;;;7.57;3.17;;;8.60;99.90;;;;;;5109109;27;20222;-76
2023/04/19 02:16:50;;;;;;;3.95;3.40;;;8.60;99.90;;;;;;5110656;28;20316;-77
2023/04/19 02:19:17;;;;;;;5.82;2.95;;;8.60;99.90;;;;;;5104848;28;20676;-77
2023/04/19 02:21:44;;;;;;;5.43;2.95;;;8.60;99.90;;;;;;5102471;28;20305;-77
2023/04/19 02:24:11;;;;;;;6.50;3.10;;;8.60;99.90;;;;;;5116363;27;20222;-77
2023/04/19 02:26:39;;;;;;;3.10;2.80;;;8.50;99.90;;;;;;5114970;27;20237;-77
2023/04/19 02:29:06;;;;;;;7.85;3.10;;;8.50;99.90;;;;;;5111605;28;20250;-77
2023/04/19 02:31:34;;;;;;;6.07;3.55;;;8.50;99.90;;;;;;5110078;28;20226;-77
2023/04/19 02:34:01;;;;;;;5.43;3.70;;;8.40;99.90;;;;;;5109184;28;20218;-76
2023/04/19 02:36:28;;;;;;;4.40;3.30;;;8.40;99.90;;;;;;5111433;28;20227;-77
2023/04/19 02:38:55;;;;;;;5.05;3.53;;;8.40;99.90;;;;;;5111653;28;20229;-76
2023/04/19 02:41:22;;;;;;;3.70;2.75;;;8.40;99.90;;;;;;5111541;28;20268;-77
2023/04/19 02:43:49;;;;;;;4.25;2.83;;;8.40;99.90;;;;;;5112100;28;20250;-77
2023/04/19 02:46:16;;;;;;;7.05;3.25;;;8.40;99.90;;;;;;5113199;28;20254;-77
2023/04/19 02:48:45;;;;;;;2.90;2.63;;;8.30;99.90;;;;;;5113142;28;20223;-76
2023/04/19 02:51:16;;;;;;;3.85;2.75;;;8.30;99.90;;;;;;5113031;28;20218;-77
2023/04/19 02:53:43;;;;;;;3.53;3.20;;;8.20;99.90;;;;;;5113014;28;20240;-76
2023/04/19 02:56:10;;;;;;;6.32;2.90;;;8.20;99.90;;;;;;5113556;28;20242;-76
2023/04/19 02:58:42;;;;;;;4.68;3.30;;;8.20;99.90;;;;;;5113001;28;20873;-76
2023/04/19 03:01:09;;;;;;;3.25;2.95;;;8.10;99.90;;;;;;5105100;28;20218;-77
2023/04/19 03:03:36;;;;;;;3.45;2.97;;;8.20;99.90;;;;;;5115434;28;20254;-77
2023/04/19 03:06:12;;;;;;;2.72;2.45;;;8.20;99.90;;;;;;5115930;28;20233;-77
2023/04/19 03:08:39;;;;;;;4.35;3.20;;;8.10;99.90;;;;;;5116074;28;20226;-75
2023/04/19 03:11:07;;;;;;;4.15;2.50;;;8.00;99.90;;;;;;5116338;28;20230;-76
2023/04/19 03:13:34;;;;;;;4.47;2.53;;;8.00;99.90;;;;;;5113890;28;20254;-75
2023/04/19 03:16:01;;;;;;;3.15;2.95;;;8.00;99.90;;;;;;5113210;28;20227;-76
2023/04/19 03:18:28;;;;;;;4.47;2.40;;;7.90;99.90;;;;;;5114449;28;20232;-77
2023/04/19 03:21:01;;;;;;;3.55;2.90;;;7.90;99.90;;;;;;5115139;28;20233;-77
2023/04/19 03:23:33;;;;;;;2.80;2.42;;;7.90;99.90;;;;;;5117693;28;20222;-77
2023/04/19 03:26:02;;;;;;;3.30;2.17;;;7.90;99.90;;;;;;5115919;28;20226;-76
2023/04/19 03:28:33;;;;;;;4.25;2.30;;;7.90;99.90;;;;;;5118276;28;20249;-75
2023/04/19 03:31:01;;;;;;;5.07;3.13;;;7.80;99.90;;;;;;5128049;28;20247;-76
2023/04/19 03:33:30;;;;;;;3.67;3.38;;;7.80;99.90;;;;;;5127960;28;20226;-76
2023/04/19 03:35:57;;;;;;;3.80;3.05;;;7.80;99.90;;;;;;5122583;28;20227;-76
2023/04/19 03:38:24;;;;;;;4.03;2.88;;;7.80;99.90;;;;;;5119920;28;20295;-75
2023/04/19 03:40:54;;;;;;;6.57;3.03;;;7.70;99.90;;;;;;5112277;28;20229;-76
2023/04/19 03:43:23;;;;;;;5.72;2.67;;;7.80;99.90;;;;;;5113512;28;20253;-76
2023/04/19 03:45:50;;;;;;;3.65;2.53;;;7.70;99.90;;;;;;5112701;28;20227;-76
2023/04/19 03:48:17;;;;;;;4.78;3.35;;;7.70;99.90;;;;;;5113017;28;20318;-76
2023/04/19 03:50:44;;;;;;;3.88;3.25;;;7.70;99.90;;;;;;5116630;28;20298;-76
2023/04/19 03:53:11;;;;;;;3.90;2.80;;;7.60;99.90;;;;;;5117470;28;20240;-76
2023/04/19 03:55:47;;;;;;;3.55;3.08;;;7.60;99.90;;;;;;5119628;28;20227;-76
2023/04/19 03:58:20;;;;;;;2.85;2.65;;;7.60;99.90;;;;;;5119185;28;20226;-76
2023/04/19 04:00:47;;;;;;;4.43;3.88;;;7.60;99.90;;;;;;5122551;28;20321;-78
2023/04/19 04:03:15;;;;;;;3.45;2.50;;;7.50;99.90;;;;;;5122023;28;20226;-76
2023/04/19 04:05:42;;;;;;;4.18;2.75;;;7.60;99.90;;;;;;5122488;28;20710;-77
2023/04/19 04:08:09;;;;;;;3.22;2.92;;;7.60;99.90;;;;;;5120272;28;20219;-77
2023/04/19 04:10:38;;;;;;;3.75;2.80;;;7.50;99.90;;;;;;5110499;28;20318;-77
2023/04/19 04:13:05;;;;;;;3.45;3.15;;;7.50;99.90;;;;;;5107600;28;20309;-77
2023/04/19 04:15:34;;;;;;;3.75;2.80;;;7.50;99.90;;;;;;5102709;28;20295;-76
2023/04/19 04:18:01;;;;;;;4.63;3.30;;;7.50;99.90;;;;;;5120330;28;20234;-76
2023/04/19 04:20:28;;;;;;;6.15;2.90;;;7.50;99.90;;;;;;5126802;28;20294;-76
2023/04/19 04:22:55;;;;;;;3.33;3.03;;;7.50;99.90;;;;;;5120777;28;20238;-76
2023/04/19 04:25:36;;;;;;;4.40;2.63;;;7.50;99.90;;;;;;5118019;28;20222;-76
2023/04/19 04:28:03;;;;;;;5.32;2.78;;;7.40;99.90;;;;;;5109115;28;20222;-77
2023/04/19 04:30:30;;;;;;;2.92;2.60;;;7.40;99.90;;;;;;5114340;28;20280;-76
2023/04/19 04:32:58;;;;;;;3.30;3.00;;;7.40;99.90;;;;;;5126431;28;20629;-76
2023/04/19 04:35:28;;;;;;;4.03;2.85;;;7.40;99.90;;;;;;5119771;28;20570;-76
2023/04/19 04:38:10;;;;;;;3.97;2.72;;;7.30;99.90;;;;;;5111582;28;20310;-75
2023/04/19 04:40:36;;;;;;;3.60;3.00;;;7.40;99.90;;;;;;5120173;28;20542;-76
2023/04/19 04:43:04;;;;;;;6.72;3.88;;;7.40;99.90;;;;;;5125438;28;20644;-76
2023/04/19 04:45:38;;;;;;;6.72;3.70;;;7.40;99.90;;;;;;5122349;28;20305;-76
2023/04/19 04:48:08;;;;;;;4.28;3.17;;;7.30;99.90;;;;;;5119285;28;20280;-75
2023/04/19 04:50:35;;;;;;;3.55;3.25;;;7.40;99.90;;;;;;5119297;28;20674;-76
2023/04/19 04:53:02;;;;;;;4.15;2.83;;;7.30;99.90;;;;;;5119041;28;20249;-77
2023/04/19 04:55:29;;;;;;;6.20;3.35;;;7.30;99.90;;;;;;5120133;28;20234;-77
2023/04/19 04:57:56;;;;;;;3.40;3.10;;;7.30;99.90;;;;;;5118731;28;20218;-76
2023/04/19 05:00:23;;;;;;;10.23;3.35;;;7.30;99.90;;;;;;5115933;28;20246;-77
2023/04/19 05:02:51;;;;;;;3.38;2.85;;;7.30;99.90;;;;;;5117883;28;20597;-78
2023/04/19 05:05:20;;;;;;;4.75;3.17;;;7.30;99.90;;;;;;5118314;28;20287;-76
2023/04/19 05:07:50;;;;;;;7.47;3.78;;;7.40;99.90;;;;;;5117870;28;20226;-77
2023/04/19 05:10:19;;;;;;;4.18;2.78;;;7.40;99.90;;;;;;5116919;28;20302;-77
2023/04/19 05:12:46;;;;;;;4.47;3.20;;;7.30;99.90;;;;;;5115723;28;20234;-77
2023/04/19 05:15:13;;;;;;;4.93;3.25;;;7.30;99.90;;;;;;5114766;28;20226;-77
2023/04/19 05:17:42;;;;;;;6.32;4.03;;;7.40;99.90;;;;;;5115720;28;20249;-76
2023/04/19 05:20:10;;;;;;;3.63;2.63;;;7.40;99.90;;;;;;5115080;28;20246;-77
2023/04/19 05:22:39;;;;;;;5.72;2.90;;;7.40;99.90;;;;;;5115329;28;20230;-77
2023/04/19 05:25:08;;;;;;;4.55;3.13;;;7.40;99.90;;;;;;5115877;28;20222;-76
2023/04/19 05:27:35;;;;;;;2.72;2.50;;;7.40;99.90;;;;;;5115433;28;20701;-76
2023/04/19 05:30:05;;;;;;;2.80;2.60;;;7.50;99.90;;;;;;5115810;28;20226;-76
2023/04/19 05:32:32;;;;;;;7.45;3.08;;;7.50;99.90;;;;;;5104017;28;20295;-76
2023/04/19 05:35:02;;;;;;;6.88;2.60;;;7.50;99.90;;;;;;5098367;28;20246;-76
2023/04/19 05:37:29;;;;;;;2.92;2.55;;;7.50;99.90;;;;;;5114130;28;20351;-77
2023/04/19 05:39:58;;;;;;;3.97;2.30;;;7.50;99.90;;;;;;5115059;28;20640;-77
2023/04/19 05:42:25;;;;;;;5.35;2.50;;;7.50;99.90;;;;;;5113957;28;20227;-77
2023/04/19 05:44:52;;;;;;;3.15;2.70;;;7.50;99.90;;;;;;5114972;28;20230;-76
2023/04/19 05:47:19;;;;;;;3.85;2.50;;;7.50;99.90;;;;;;5114915;28;20215;-76
2023/04/19 05:49:46;;;;;;;3.15;2.40;;;7.60;99.90;;;;;;5114300;28;20237;-76
2023/04/19 05:52:13;;;;;;;5.53;3.22;;;7.50;99.90;;;;;;5114632;28;20226;-75
2023/04/19 05:54:40;;;;;;;5.25;2.40;;;7.60;99.90;;;;;;5114495;28;20227;-76
2023/04/19 05:57:08;;;;;;;2.75;2.30;;;7.70;99.90;;;;;;5114521;28;20555;-76
2023/04/19 05:59:36;;;;;;;2.42;2.20;;;7.70;99.90;;;;;;5114536;28;20245;-77
2023/04/19 06:02:04;;;;;;;4.57;3.40;;;7.80;99.90;;;;;;5114660;28;20591;-77
2023/04/19 06:04:31;;;;;;;3.15;2.42;;;7.80;99.90;;;;;;5113847;28;20244;-77
2023/04/19 06:06:58;;;;;;;5.15;2.40;;;7.90;99.90;;;;;;5114351;28;20242;-77
2023/04/19 06:09:26;;;;;;;4.63;2.70;;;7.90;99.90;;;;;;5113764;28;20230;-77
2023/04/19 06:11:53;;;;;;;2.78;2.30;;;8.00;99.90;;;;;;5113901;28;20293;-77
2023/04/19 06:14:22;;;;;;;5.07;2.75;;;8.10;99.90;;;;;;5114172;28;20245;-77
2023/04/19 06:16:49;;;;;;;4.25;2.53;;;8.10;99.90;;;;;;5114539;28;20616;-77
2023/04/19 06:19:16;;;;;;;2.75;2.40;;;8.10;99.90;;;;;;5114295;28;20250;-77
2023/04/19 06:21:44;;;;;;;3.25;2.08;;;8.20;99.90;;;;;;5113513;28;20219;-77
2023/04/19 06:24:11;;;;;;;2.58;2.05;;;8.30;99.90;;;;;;5113789;28;20215;-75
2023/04/19 06:26:41;;;;;;;5.40;2.50;;;8.30;99.90;;;;;;5113485;28;20241;-77
2023/04/19 06:29:08;;;;;;;4.45;2.45;;;8.40;99.90;;;;;;5114181;28;20236;-78
2023/04/19 06:31:36;;;;;;;7.32;2.63;;;8.40;99.90;;;;;;5112921;28;20250;-77
2023/04/19 06:34:03;;;;;;;5.72;2.63;;;8.50;99.90;;;;;;5113786;28;20536;-77
2023/04/19 06:36:31;;;;;;;5.90;3.78;;;8.60;99.90;;;;;;5113053;28;20276;-77
2023/04/19 06:38:58;;;;;;;5.28;2.45;;;8.60;99.90;;;;;;5113781;28;20218;-76
2023/04/19 06:41:25;;;;;;;2.38;2.00;;;8.70;99.90;;;;;;5113596;28;20222;-78
2023/04/19 06:43:52;;;;;;;6.20;2.35;;;8.80;99.90;;;;;;5113190;28;20227;-76
2023/04/19 06:46:19;;;;;;;3.30;2.63;;;8.80;99.90;;;;;;5113930;28;20567;-77
2023/04/19 06:48:48;;;;;;;4.53;2.80;;;8.80;99.90;;;;;;5113208;28;20223;-76
2023/04/19 06:51:17;;;;;;;4.05;2.22;;;8.90;99.90;;;;;;5113225;28;20261;-76
2023/04/19 06:53:45;;;;;;;5.38;3.00;;;9.00;99.90;;;;;;5112538;28;20313;-76
2023/04/19 06:56:12;;;;;;;4.63;1.88;;;9.10;99.90;;;;;;5113494;28;20222;-76
2023/04/19 06:58:39;;;;;;;2.58;2.30;;;9.10;99.90;;;;;;5112914;28;20306;-76
2023/04/19 07:01:08;;;;;;;7.07;2.45;;;9.20;99.90;;;;;;5113844;28;20279;-75
2023/04/19 07:03:35;;;;;;;3.53;2.20;;;9.30;99.90;;;;;;5113527;28;20246;-76
2023/04/19 07:06:04;;;;;;;3.47;1.88;;;9.40;99.90;;;;;;5113591;28;20229;-76
2023/04/19 07:08:31;;;;;;;2.88;2.20;;;9.40;99.90;;;;;;5113414;28;20237;-75
2023/04/19 07:10:59;;;;;;;5.93;3.03;;;9.50;99.90;;;;;;5112930;28;20305;-78
2023/04/19 07:13:25;;;;;;;3.95;2.20;;;9.60;99.90;;;;;;5113029;28;20227;-75
2023/04/19 07:15:52;;;;;;;3.38;1.70;;;9.60;99.90;;;;;;5111700;28;20334;-77
2023/04/19 07:18:19;;;;;;;2.95;2.58;;;9.70;99.90;;;;;;5113723;28;20263;-77
2023/04/19 07:20:48;;;;;;;5.85;2.25;;;9.80;99.90;;;;;;5112801;28;20290;-76
2023/04/19 07:23:17;;;;;;;3.05;1.80;;;9.90;99.90;;;;;;5113623;28;20227;-76
2023/04/19 07:25:44;;;;;;;3.80;2.53;;;10.00;99.90;;;;;;5115702;28;20261;-76
2023/04/19 07:28:12;;;;;;;3.40;2.35;;;10.10;99.90;;;;;;5117412;28;20218;-76
2023/04/19 07:30:40;;;;;;;4.60;3.35;;;10.20;99.90;;;;;;5116570;28;20233;-76
2023/04/19 07:33:07;;;;;;;8.55;5.20;;;10.30;99.90;;;;;;5117157;28;20253;-76
2023/04/19 07:35:35;;;;;;;3.00;1.77;;;10.40;99.90;;;;;;5117362;28;20242;-76
2023/04/19 07:38:02;;;;;;;5.55;2.13;;;10.50;99.90;;;;;;5116810;28;20218;-78
2023/04/19 07:40:31;;;;;;;2.50;2.30;;;10.60;99.90;;;;;;5117408;28;20227;-76
2023/04/19 07:42:58;;;;;;;3.25;2.30;;;10.70;99.90;;;;;;5116126;28;25291;-77
2023/04/19 07:45:25;;;;;;;3.35;2.47;;;10.70;99.90;;;;;;5116895;28;20229;-77
2023/04/19 07:47:51;;;;;;;3.65;1.60;;;10.80;99.90;;;;;;5116327;28;20218;-77
2023/04/19 07:50:20;;;;;;;2.78;1.90;;;10.80;99.90;;;;;;5116872;28;20732;-76
2023/04/19 07:52:47;;;;;;;3.30;2.92;;;11.00;99.80;;;;;;5116639;28;20223;-77
2023/04/19 07:55:14;;;;;;;3.05;2.30;;;11.10;99.30;;;;;;5117147;28;20230;-76
2023/04/19 07:57:46;;;;;;;2.88;1.85;;;11.10;99.30;;;;;;5107349;28;20698;-77
2023/04/19 08:00:14;;;;;;;1.88;1.75;;;11.20;98.80;;;;;;5117031;28;20671;-77
2023/04/19 08:02:43;;;;;;;9.30;3.63;;;11.40;98.40;;;;;;5116577;28;20643;-77
2023/04/19 08:05:10;;;;;;;3.22;2.00;;;11.50;98.30;;;;;;5116406;28;20233;-76
2023/04/19 08:07:37;;;;;;;4.50;2.40;;;11.60;97.60;;;;;;5116870;28;20246;-76
2023/04/19 08:10:05;;;;;;;3.97;2.67;;;11.60;97.50;;;;;;5115995;28;20310;-76
2023/04/19 08:12:32;;;;;;;5.50;2.10;;;11.70;97.00;;;;;;5116630;28;20246;-76
2023/04/19 08:15:00;;;;;;;4.30;3.55;;;11.80;96.40;;;;;;5113712;28;20280;-76
2023/04/19 08:17:27;;;;;;;3.10;2.80;;;11.90;96.00;;;;;;5116627;28;20671;-76
2023/04/19 08:19:54;;;;;;;4.30;2.38;;;11.90;95.30;;;;;;5107151;28;20223;-76
2023/04/19 08:22:22;;;;;;;2.85;2.50;;;12.00;94.70;;;;;;5116398;28;20230;-76
2023/04/19 08:24:50;;;;;;;3.10;2.38;;;12.00;94.10;;;;;;5116050;28;20283;-77
2023/04/19 08:27:19;;;;;;;4.15;2.53;;;12.10;93.60;;;;;;5116346;28;20226;-76
2023/04/19 08:29:46;;;;;;;3.55;2.65;;;12.10;93.50;;;;;;5116335;28;20223;-76
2023/04/19 08:32:15;;;;;;;4.78;3.40;;;12.10;93.00;;;;;;5115362;28;20702;-77
2023/04/19 08:34:42;;;;;;;6.22;2.97;;;12.20;93.30;;;;;;5116156;28;20287;-77
2023/04/19 08:37:09;;;;;;;6.45;2.80;;;12.20;93.00;;;;;;5115241;28;20237;-76
2023/04/19 08:39:36;;;;;;;3.95;2.65;;;12.30;92.60;;;;;;5116172;28;20215;-76
2023/04/19 08:42:06;;;;;;;3.95;3.53;;;12.30;92.00;;;;;;5115760;28;20223;-76
2023/04/19 08:44:35;;;;;;;5.28;2.58;;;12.30;91.90;;;;;;5115738;28;20549;-77
2023/04/19 08:47:03;;;;;;;4.25;3.50;;;12.40;92.00;;;;;;5115352;28;20593;-76
2023/04/19 08:49:35;;;;;;;4.25;2.95;;;12.40;92.00;;;;;;5115093;28;20722;-76
2023/04/19 08:52:04;;;;;;;5.63;3.38;;;12.50;91.80;;;;;;5115073;28;20227;-77
2023/04/19 08:54:31;;;;;;;3.53;1.88;;;12.60;91.50;;;;;;5115068;28;20219;-76
2023/04/19 08:56:59;;;;;;;6.47;2.45;;;12.60;91.70;;;;;;5115237;28;20648;-76
2023/04/19 08:59:27;;;;;;;5.93;3.15;;;12.60;91.40;;;;;;5115474;28;20556;-77
2023/04/19 09:02:00;;;;;;;2.80;2.50;;;12.80;90.70;;;;;;5114733;28;20687;-77
2023/04/19 09:04:28;;;;;;;4.72;2.80;;;12.80;90.40;;;;;;5114881;28;20731;-76
2023/04/19 09:06:56;;;;;;;8.13;4.05;;;12.80;90.00;;;;;;5114508;28;20283;-76
2023/04/19 09:09:25;;;;;;;5.53;2.77;;;12.80;90.10;;;;;;5115106;28;20219;-76
2023/04/19 09:11:52;;;;;;;3.40;2.40;;;12.90;89.70;;;;;;5115331;28;20487;-77
2023/04/19 09:14:21;;;;;;;8.15;5.18;;;13.00;90.40;;;;;;5113950;28;20457;-77
2023/04/19 09:16:50;;;;;;;3.30;2.45;;;13.10;89.90;;;;;;5114697;28;20259;-76
2023/04/19 09:19:18;;;;;;;4.80;3.40;;;13.10;90.10;;;;;;5113682;28;20641;-76
2023/04/19 09:21:50;;;;;;;8.52;3.30;;;13.20;90.00;;;;;;5114844;28;20468;-76
2023/04/19 09:24:19;;;;;;;3.58;2.97;;;13.30;88.40;;;;;;5114083;28;20241;-77
2023/04/19 09:26:56;;;;;;;4.10;3.07;;;13.30;88.20;;;;;;5114640;28;20246;-77
2023/04/19 09:29:23;;;;;;;4.28;2.78;;;13.40;87.10;;;;;;5113525;28;20456;-77
2023/04/19 09:31:58;;;;;;;3.65;3.28;;;13.40;85.90;;;;;;5114551;28;20225;-76
2023/04/19 09:34:27;;;;;;;2.90;2.17;;;13.40;85.60;;;;;;5114879;28;20279;-76
2023/04/19 09:36:57;;;;;;;9.55;2.80;;;13.50;85.30;;;;;;5114699;28;20752;-77
2023/04/19 09:39:34;;;;;;;3.60;2.70;;;13.60;84.40;;;;;;5113668;28;20257;-76
2023/04/19 09:42:03;;;;;;;4.00;2.75;;;13.50;83.40;;;;;;5113676;28;20472;-77
2023/04/19 09:44:33;;;;;;;3.73;3.30;;;13.50;83.20;;;;;;5114790;28;20277;-77
2023/04/19 09:47:01;;;;;;;6.22;3.70;;;13.50;82.80;;;;;;5113646;28;20541;-77
2023/04/19 09:49:28;;;;;;;4.27;3.00;;;13.50;82.70;;;;;;5113992;28;20215;-76
2023/04/19 09:51:56;;;;;;;5.60;3.17;;;13.50;82.60;;;;;;5114328;28;20778;-77
2023/04/19 09:54:26;;;;;;;4.53;3.23;;;13.40;81.50;;;;;;5113453;28;20234;-77
2023/04/19 09:56:57;;;;;;;3.03;2.40;;;13.40;82.20;;;;;;5114019;28;20464;-77
2023/04/19 09:59:25;;;;;;;5.63;3.53;;;13.40;82.80;;;;;;5113097;28;20778;-77
2023/04/19 10:01:56;;;;;;;4.50;2.85;;;13.50;83.20;;;;;;5114401;28;20467;-77
2023/04/19 10:04:23;;;;;;;5.18;3.72;;;13.60;82.00;;;;;;5113924;28;20329;-76
2023/04/19 10:06:51;;;;;;;5.10;3.30;;;13.60;81.00;;;;;;5114304;28;20599;-77
2023/04/19 10:09:19;;;;;;;2.50;2.30;;;13.60;80.10;;;;;;5113912;28;20476;-77
2023/04/19 10:11:50;;;;;;;5.10;2.67;;;13.60;79.90;;;;;;5114324;28;20479;-76
2023/04/19 10:14:23;;;;;;;4.43;3.00;;;13.60;80.40;;;;;;5114043;28;20226;-77
2023/04/19 10:16:51;;;;;;;6.57;2.70;;;13.70;79.50;;;;;;5114047;28;21042;-75
2023/04/19 10:19:19;;;;;;;3.57;3.23;;;13.60;79.40;;;;;;5113214;28;20219;-76
2023/04/19 10:21:59;;;;;;;3.70;3.27;;;13.70;80.10;;;;;;5113745;28;21011;-76
2023/04/19 10:24:27;;;;;;;5.77;3.53;;;13.80;80.70;;;;;;5113031;28;20476;-76
2023/04/19 10:27:13;;;;;;;2.47;2.27;;;13.90;80.10;;;;;;5114145;28;20477;-76
2023/04/19 10:29:58;;;;;;;6.00;3.83;;;13.90;79.40;;;;;;5114176;28;20894;-76
2023/04/19 10:32:28;;;;;;;3.23;2.67;;;13.90;79.30;;;;;;5112804;28;20942;-76
2023/04/19 10:34:55;;;;;;;5.00;2.57;;;14.00;79.10;;;;;;5113598;28;20555;-76
2023/04/19 10:37:25;;;;;;;3.23;2.83;;;13.90;79.00;;;;;;5094226;28;20473;-76
2023/04/19 10:39:52;;;;;;;5.60;3.47;;;13.90;77.80;;;;;;5097248;28;20468;-76
2023/04/19 10:42:19;;;;;;;8.73;3.63;;;13.80;77.10;;;;;;5113178;28;20505;-76
2023/04/19 10:45:24;;;;;;;3.63;2.43;;;13.80;78.30;;;;;;5113110;28;20496;-76
2023/04/19 10:47:52;;;;;;;3.90;2.80;;;13.90;78.70;;;;;;5113222;28;20539;-76
2023/04/19 10:50:20;;;;;;;4.50;3.13;;;13.80;78.00;;;;;;5114069;28;20475;-76
2023/04/19 10:52:47;;;;;;;4.30;2.93;;;13.80;78.90;;;;;;5086242;28;20473;-76
2023/04/19 10:55:18;;;;;;;4.50;3.67;;;13.90;77.70;;;;;;5113357;28;20469;-76
2023/04/19 10:58:03;;;;;;;6.40;2.57;;;13.90;78.00;;;;;;5112858;28;20811;-77
2023/04/19 11:00:32;;;;;;;3.93;2.83;;;14.00;78.30;;;;;;5116729;28;20456;-76
2023/04/19 11:03:10;;;;;;;4.03;3.17;;;14.00;78.20;;;;;;5117244;28;20770;-76
2023/04/19 11:06:11;;;;;;;3.97;3.40;;;13.90;78.20;;;;;;5117520;28;20463;-75
2023/04/19 11:08:43;;;;;;;5.93;3.30;;;14.00;78.40;;;;;;5118972;28;20559;-76
2023/04/19 11:11:12;;;;;;;5.43;3.13;;;14.00;77.80;;;;;;5119445;28;20461;-76
2023/04/19 11:13:41;;;;;;;3.53;2.93;;;14.10;77.70;;;;;;5117772;28;20494;-77
2023/04/19 11:16:13;;;;;;;19.03;5.13;;;14.10;77.20;;;;;;5118324;28;20474;-77
2023/04/19 11:18:42;;;;;;;3.97;3.27;;;14.10;77.80;;;;;;5118287;28;20481;-74
2023/04/19 11:21:15;;;;;;;7.87;3.30;;;14.10;77.40;;;;;;5117741;28;20871;-77
2023/04/19 11:23:42;;;;;;;3.57;3.20;;;14.10;76.70;;;;;;5118118;28;20456;-77
2023/04/19 11:26:10;;;;;;;5.13;3.70;;;14.20;76.60;;;;;;5117348;28;20555;-77
2023/04/19 11:28:38;;;;;;;6.40;3.87;;;14.20;76.10;;;;;;5117580;28;20480;-77
2023/04/19 11:31:09;;;;;;;4.67;3.80;;;14.30;75.50;;;;;;5116986;28;20468;-77
2023/04/19 11:33:38;;;;;;;7.03;3.30;;;14.40;76.00;;;;;;5117078;28;20538;-78
2023/04/19 11:36:12;;;;;;;4.30;2.80;;;14.40;76.90;;;;;;5117163;28;20510;-78
2023/04/19 11:38:39;;;;;;;6.17;3.03;;;14.40;76.80;;;;;;5117132;28;20486;-77
2023/04/19 11:41:06;;;;;;;4.40;3.83;;;14.40;76.70;;;;;;5117740;28;20566;-77
2023/04/19 11:43:33;;;;;;;5.37;3.97;;;14.30;76.90;;;;;;5117009;28;20530;-77
2023/04/19 11:46:06;;;;;;;3.87;3.30;;;14.30;77.40;;;;;;5116637;28;20504;-77
2023/04/19 11:48:36;;;;;;;6.17;3.57;;;14.30;78.00;;;;;;5116715;28;20468;-76
2023/04/19 11:51:03;;;;;;;3.10;2.50;;;14.30;78.20;;;;;;5116668;28;20491;-76
2023/04/19 11:53:33;;;;;;;5.10;2.83;;;14.30;78.00;;;;;;5116750;28;20460;-77
2023/04/19 11:56:07;;;;;;;4.47;3.50;;;14.30;77.30;;;;;;5117275;28;20456;-78
2023/04/19 11:58:38;;;;;;;5.90;2.93;;;14.30;76.30;;;;;;5116607;28;20459;-78
2023/04/19 12:01:08;;;;;;;3.50;2.77;;;14.30;76.10;;;;;;5092586;28;20469;-76
2023/04/19 12:03:41;;;;;;;3.07;2.70;;;14.20;76.50;;;;;;5114220;28;20468;-77
2023/04/19 12:06:12;;;;;;;5.03;3.10;;;14.20;76.90;;;;;;5116931;28;20468;-77
2023/04/19 12:08:45;;;;;;;7.73;3.50;;;14.20;75.20;;;;;;5117768;28;20536;-78
2023/04/19 12:11:13;;;;;;;3.60;3.30;;;14.20;76.00;;;;;;5118845;28;20498;-77
2023/04/19 12:13:40;;;;;;;5.50;3.47;;;14.30;76.40;;;;;;5120251;28;20464;-76
2023/04/19 12:16:08;;;;;;;4.37;2.93;;;14.30;76.30;;;;;;5085901;28;20465;-76
2023/04/19 12:18:49;;;;;;;4.27;3.00;;;14.30;75.30;;;;;;5122018;27;20472;-76
2023/04/19 12:21:26;;;;;;;3.03;2.60;;;14.30;74.70;;;;;;5145782;27;20478;-76
2023/04/19 12:23:56;;;;;;;4.47;3.07;;;14.40;74.90;;;;;;5153870;27;20463;-77
2023/04/19 12:26:24;;;;;;;7.33;4.23;;;14.40;75.20;;;;;;5156393;27;20447;-77
2023/04/19 12:28:52;;;;;;;3.90;3.40;;;14.40;75.30;;;;;;5157285;27;20475;-76
2023/04/19 12:31:19;;;;;;;5.20;3.60;;;14.40;75.40;;;;;;5157314;27;20444;-77
2023/04/19 12:33:46;;;;;;;4.17;3.37;;;14.40;74.60;;;;;;5157043;27;20451;-77
2023/04/19 12:36:13;;;;;;;4.00;3.03;;;14.30;73.70;;;;;;5144133;27;20472;-77
2023/04/19 12:38:42;;;;;;;3.83;2.90;;;14.30;73.60;;;;;;5153279;27;20491;-76
2023/04/19 12:41:11;;;;;;;4.57;3.03;;;14.30;74.10;;;;;;5156056;27;20519;-77
2023/04/19 12:43:38;;;;;;;6.73;3.83;;;14.30;74.70;;;;;;5155920;27;20506;-77
2023/04/19 12:46:05;;;;;;;4.77;3.40;;;14.40;75.20;;;;;;5143433;27;20467;-76
2023/04/19 12:48:32;;;;;;;7.97;3.30;;;14.30;76.10;;;;;;5156186;27;20447;-77
2023/04/19 12:51:02;;;;;;;4.00;3.63;;;14.30;76.50;;;;;;5154991;27;20474;-77
2023/04/19 12:53:29;;;;;;;5.30;3.63;;;14.30;77.30;;;;;;5154598;27;20463;-77
2023/04/19 12:55:56;;;;;;;4.33;3.70;;;14.20;77.20;;;;;;5153899;27;20516;-77
2023/04/19 12:58:25;;;;;;;3.90;3.50;;;14.20;76.40;;;;;;5150329;27;20494;-76
2023/04/19 13:00:52;;;;;;;4.97;3.47;;;14.30;76.00;;;;;;5149870;27;20484;-77